sensor_id;sensor_type;location;lat;lon;timestamp;P1;durP1;ratioP1;P2;durP2;ratioP2
74707;SDS011;63360;50.104;8.074;2023-02-28T00:01:05;2.80;;;1.05;;
74707;SDS011;63360;50.104;8.074;2023-02-28T00:03:32;4.18;;;1.20;;
74707;SDS011;63360;50.104;8.074;2023-02-28T00:06:02;2.85;;;1.10;;
74707;SDS011;63360;50.104;8.074;2023-02-28T00:08:29;3.50;;;1.17;;
74707;SDS011;63360;50.104;8.074;2023-02-28T00:10:56;2.70;;;1.00;;
74707;SDS011;63360;50.104;8.074;2023-02-28T00:13:29;3.15;;;1.20;;
74707;SDS011;63360;50.104;8.074;2023-02-28T00:15:59;3.28;;;1.23;;
74707;SDS011;63360;50.104;8.074;2023-02-28T00:18:27;2.67;;;1.08;;
74707;SDS011;63360;50.104;8.074;2023-02-28T00:20:57;3.63;;;1.30;;
74707;SDS011;63360;50.104;8.074;2023-02-28T00:23:23;3.40;;;1.20;;
74707;SDS011;63360;50.104;8.074;2023-02-28T00:25:50;3.55;;;1.30;;
74707;SDS011;63360;50.104;8.074;2023-02-28T00:28:17;4.95;;;1.50;;
74707;SDS011;63360;50.104;8.074;2023-02-28T00:30:44;3.88;;;1.30;;
74707;SDS011;63360;50.104;8.074;2023-02-28T00:33:11;3.97;;;1.40;;
74707;SDS011;63360;50.104;8.074;2023-02-28T00:35:37;3.20;;;1.33;;
74707;SDS011;63360;50.104;8.074;2023-02-28T00:38:04;3.17;;;1.10;;
74707;SDS011;63360;50.104;8.074;2023-02-28T00:40:30;3.70;;;1.33;;
74707;SDS011;63360;50.104;8.074;2023-02-28T00:42:57;3.47;;;1.27;;
74707;SDS011;63360;50.104;8.074;2023-02-28T00:45:23;3.50;;;1.48;;
74707;SDS011;63360;50.104;8.074;2023-02-28T00:47:50;5.97;;;1.40;;
74707;SDS011;63360;50.104;8.074;2023-02-28T00:50:17;4.03;;;1.52;;
74707;SDS011;63360;50.104;8.074;2023-02-28T00:52:44;3.60;;;1.10;;
74707;SDS011;63360;50.104;8.074;2023-02-28T00:55:11;3.42;;;1.35;;
74707;SDS011;63360;50.104;8.074;2023-02-28T00:57:37;4.45;;;1.35;;
74707;SDS011;63360;50.104;8.074;2023-02-28T01:00:04;3.80;;;1.27;;
74707;SDS011;63360;50.104;8.074;2023-02-28T01:02:31;4.15;;;1.70;;
74707;SDS011;63360;50.104;8.074;2023-02-28T01:04:57;4.18;;;1.55;;
74707;SDS011;63360;50.104;8.074;2023-02-28T01:07:24;5.40;;;1.75;;
74707;SDS011;63360;50.104;8.074;2023-02-28T01:09:50;4.10;;;1.80;;
74707;SDS011;63360;50.104;8.074;2023-02-28T01:12:16;3.60;;;1.63;;
74707;SDS011;63360;50.104;8.074;2023-02-28T01:14:43;3.53;;;1.55;;
74707;SDS011;63360;50.104;8.074;2023-02-28T01:17:09;4.03;;;1.30;;
74707;SDS011;63360;50.104;8.074;2023-02-28T01:19:36;4.50;;;1.77;;
74707;SDS011;63360;50.104;8.074;2023-02-28T01:22:03;4.15;;;1.65;;
74707;SDS011;63360;50.104;8.074;2023-02-28T01:24:31;3.87;;;1.40;;
74707;SDS011;63360;50.104;8.074;2023-02-28T01:26:59;4.35;;;1.60;;
74707;SDS011;63360;50.104;8.074;2023-02-28T01:29:26;4.28;;;1.58;;
74707;SDS011;63360;50.104;8.074;2023-02-28T01:31:52;4.88;;;1.92;;
74707;SDS011;63360;50.104;8.074;2023-02-28T01:34:18;5.97;;;1.85;;
74707;SDS011;63360;50.104;8.074;2023-02-28T01:36:45;5.00;;;2.03;;
74707;SDS011;63360;50.104;8.074;2023-02-28T01:39:11;4.30;;;1.63;;
74707;SDS011;63360;50.104;8.074;2023-02-28T01:41:39;4.05;;;1.80;;
74707;SDS011;63360;50.104;8.074;2023-02-28T01:47:11;4.95;;;2.00;;
74707;SDS011;63360;50.104;8.074;2023-02-28T01:49:38;4.10;;;1.57;;
74707;SDS011;63360;50.104;8.074;2023-02-28T01:52:05;5.75;;;1.95;;
74707;SDS011;63360;50.104;8.074;2023-02-28T01:54:33;4.25;;;1.90;;
74707;SDS011;63360;50.104;8.074;2023-02-28T01:57:05;7.00;;;2.22;;
74707;SDS011;63360;50.104;8.074;2023-02-28T01:59:37;6.25;;;2.20;;
74707;SDS011;63360;50.104;8.074;2023-02-28T02:02:26;5.77;;;2.20;;
74707;SDS011;63360;50.104;8.074;2023-02-28T02:04:56;5.00;;;2.10;;
74707;SDS011;63360;50.104;8.074;2023-02-28T02:07:29;6.32;;;2.40;;
74707;SDS011;63360;50.104;8.074;2023-02-28T02:13:05;5.28;;;2.10;;
74707;SDS011;63360;50.104;8.074;2023-02-28T02:16:02;5.90;;;2.00;;
74707;SDS011;63360;50.104;8.074;2023-02-28T02:18:51;6.65;;;2.35;;
74707;SDS011;63360;50.104;8.074;2023-02-28T02:40:43;6.32;;;2.55;;
74707;SDS011;63360;50.104;8.074;2023-02-28T02:43:19;8.13;;;2.90;;
74707;SDS011;63360;50.104;8.074;2023-02-28T02:45:55;6.80;;;2.50;;
74707;SDS011;63360;50.104;8.074;2023-02-28T02:48:26;6.05;;;2.40;;
74707;SDS011;63360;50.104;8.074;2023-02-28T02:50:58;7.05;;;2.80;;
74707;SDS011;63360;50.104;8.074;2023-02-28T02:53:29;7.65;;;3.05;;
74707;SDS011;63360;50.104;8.074;2023-02-28T02:55:59;7.93;;;2.57;;
74707;SDS011;63360;50.104;8.074;2023-02-28T02:58:29;6.07;;;2.63;;
74707;SDS011;63360;50.104;8.074;2023-02-28T03:01:01;7.75;;;2.83;;
74707;SDS011;63360;50.104;8.074;2023-02-28T03:03:29;8.32;;;2.70;;
74707;SDS011;63360;50.104;8.074;2023-02-28T03:05:59;7.88;;;2.65;;
74707;SDS011;63360;50.104;8.074;2023-02-28T03:08:28;7.23;;;2.70;;
74707;SDS011;63360;50.104;8.074;2023-02-28T03:10:56;6.57;;;3.17;;
74707;SDS011;63360;50.104;8.074;2023-02-28T03:16:09;7.95;;;2.80;;
74707;SDS011;63360;50.104;8.074;2023-02-28T03:18:51;7.15;;;2.95;;
74707;SDS011;63360;50.104;8.074;2023-02-28T03:21:25;7.00;;;2.90;;
74707;SDS011;63360;50.104;8.074;2023-02-28T03:24:09;8.20;;;2.95;;
74707;SDS011;63360;50.104;8.074;2023-02-28T03:26:45;6.72;;;2.88;;
74707;SDS011;63360;50.104;8.074;2023-02-28T03:29:23;7.68;;;3.05;;
74707;SDS011;63360;50.104;8.074;2023-02-28T03:31:58;8.38;;;2.95;;
74707;SDS011;63360;50.104;8.074;2023-02-28T03:34:34;6.23;;;2.83;;
74707;SDS011;63360;50.104;8.074;2023-02-28T03:37:05;7.25;;;3.00;;
74707;SDS011;63360;50.104;8.074;2023-02-28T03:42:06;8.32;;;3.10;;
74707;SDS011;63360;50.104;8.074;2023-02-28T03:47:08;6.67;;;2.83;;
74707;SDS011;63360;50.104;8.074;2023-02-28T03:49:49;10.43;;;3.42;;
74707;SDS011;63360;50.104;8.074;2023-02-28T03:52:25;9.07;;;3.22;;
74707;SDS011;63360;50.104;8.074;2023-02-28T03:54:59;9.15;;;3.00;;
74707;SDS011;63360;50.104;8.074;2023-02-28T03:57:40;9.68;;;3.40;;
74707;SDS011;63360;50.104;8.074;2023-02-28T04:00:12;10.13;;;3.30;;
74707;SDS011;63360;50.104;8.074;2023-02-28T04:02:43;8.40;;;2.97;;
74707;SDS011;63360;50.104;8.074;2023-02-28T04:05:09;7.90;;;3.30;;
74707;SDS011;63360;50.104;8.074;2023-02-28T04:07:36;8.10;;;3.00;;
74707;SDS011;63360;50.104;8.074;2023-02-28T04:10:03;7.30;;;3.10;;
74707;SDS011;63360;50.104;8.074;2023-02-28T04:12:30;9.00;;;3.37;;
74707;SDS011;63360;50.104;8.074;2023-02-28T04:14:56;7.95;;;3.47;;
74707;SDS011;63360;50.104;8.074;2023-02-28T04:17:23;9.10;;;3.30;;
74707;SDS011;63360;50.104;8.074;2023-02-28T04:19:49;9.07;;;3.33;;
74707;SDS011;63360;50.104;8.074;2023-02-28T04:22:16;8.15;;;3.65;;
74707;SDS011;63360;50.104;8.074;2023-02-28T04:24:43;10.43;;;3.23;;
74707;SDS011;63360;50.104;8.074;2023-02-28T04:27:10;7.88;;;3.13;;
74707;SDS011;63360;50.104;8.074;2023-02-28T04:29:36;9.18;;;3.40;;
74707;SDS011;63360;50.104;8.074;2023-02-28T04:32:03;12.05;;;4.65;;
74707;SDS011;63360;50.104;8.074;2023-02-28T04:34:31;10.18;;;4.07;;
74707;SDS011;63360;50.104;8.074;2023-02-28T04:36:58;8.30;;;3.60;;
74707;SDS011;63360;50.104;8.074;2023-02-28T04:39:38;8.43;;;3.40;;
74707;SDS011;63360;50.104;8.074;2023-02-28T04:42:05;7.47;;;3.42;;
74707;SDS011;63360;50.104;8.074;2023-02-28T04:44:31;7.38;;;3.05;;
74707;SDS011;63360;50.104;8.074;2023-02-28T04:46:58;7.60;;;3.00;;
74707;SDS011;63360;50.104;8.074;2023-02-28T04:49:24;7.03;;;2.97;;
74707;SDS011;63360;50.104;8.074;2023-02-28T04:51:51;7.45;;;2.92;;
74707;SDS011;63360;50.104;8.074;2023-02-28T04:54:18;8.48;;;3.40;;
74707;SDS011;63360;50.104;8.074;2023-02-28T04:56:45;8.00;;;3.03;;
74707;SDS011;63360;50.104;8.074;2023-02-28T04:59:12;10.52;;;4.20;;
74707;SDS011;63360;50.104;8.074;2023-02-28T05:01:38;8.17;;;3.60;;
74707;SDS011;63360;50.104;8.074;2023-02-28T05:04:05;9.20;;;3.72;;
74707;SDS011;63360;50.104;8.074;2023-02-28T05:06:32;7.40;;;3.08;;
74707;SDS011;63360;50.104;8.074;2023-02-28T05:08:59;9.00;;;3.72;;
74707;SDS011;63360;50.104;8.074;2023-02-28T05:11:27;9.43;;;3.67;;
74707;SDS011;63360;50.104;8.074;2023-02-28T05:14:00;9.70;;;3.00;;
74707;SDS011;63360;50.104;8.074;2023-02-28T05:16:31;11.38;;;3.17;;
74707;SDS011;63360;50.104;8.074;2023-02-28T05:18:58;7.68;;;3.33;;
74707;SDS011;63360;50.104;8.074;2023-02-28T05:23:59;9.32;;;3.50;;
74707;SDS011;63360;50.104;8.074;2023-02-28T05:26:27;8.50;;;3.20;;
74707;SDS011;63360;50.104;8.074;2023-02-28T05:28:55;8.70;;;3.58;;
74707;SDS011;63360;50.104;8.074;2023-02-28T05:31:22;7.80;;;3.40;;
74707;SDS011;63360;50.104;8.074;2023-02-28T05:33:49;10.43;;;3.65;;
74707;SDS011;63360;50.104;8.074;2023-02-28T05:36:15;10.05;;;4.15;;
74707;SDS011;63360;50.104;8.074;2023-02-28T05:38:41;11.03;;;4.10;;
74707;SDS011;63360;50.104;8.074;2023-02-28T05:41:08;8.85;;;3.55;;
74707;SDS011;63360;50.104;8.074;2023-02-28T05:43:37;8.38;;;3.53;;
74707;SDS011;63360;50.104;8.074;2023-02-28T05:46:07;9.07;;;3.40;;
74707;SDS011;63360;50.104;8.074;2023-02-28T05:48:36;9.88;;;3.22;;
74707;SDS011;63360;50.104;8.074;2023-02-28T05:51:03;8.70;;;3.17;;
74707;SDS011;63360;50.104;8.074;2023-02-28T05:53:31;7.20;;;3.00;;
74707;SDS011;63360;50.104;8.074;2023-02-28T05:55:59;8.65;;;3.38;;
74707;SDS011;63360;50.104;8.074;2023-02-28T05:58:25;7.93;;;3.28;;
74707;SDS011;63360;50.104;8.074;2023-02-28T06:00:57;8.25;;;3.40;;
74707;SDS011;63360;50.104;8.074;2023-02-28T06:03:27;8.00;;;3.13;;
74707;SDS011;63360;50.104;8.074;2023-02-28T06:05:54;9.40;;;3.30;;
74707;SDS011;63360;50.104;8.074;2023-02-28T06:08:20;9.13;;;4.07;;
74707;SDS011;63360;50.104;8.074;2023-02-28T06:10:46;8.98;;;3.67;;
74707;SDS011;63360;50.104;8.074;2023-02-28T06:13:13;10.32;;;3.67;;
74707;SDS011;63360;50.104;8.074;2023-02-28T06:15:39;9.03;;;3.50;;
74707;SDS011;63360;50.104;8.074;2023-02-28T06:18:06;8.18;;;3.50;;
74707;SDS011;63360;50.104;8.074;2023-02-28T06:20:33;9.30;;;3.53;;
74707;SDS011;63360;50.104;8.074;2023-02-28T06:23:00;9.27;;;3.40;;
74707;SDS011;63360;50.104;8.074;2023-02-28T06:25:27;9.75;;;3.28;;
74707;SDS011;63360;50.104;8.074;2023-02-28T06:27:54;9.47;;;3.80;;
74707;SDS011;63360;50.104;8.074;2023-02-28T06:30:21;8.93;;;3.40;;
74707;SDS011;63360;50.104;8.074;2023-02-28T06:32:53;9.98;;;3.40;;
74707;SDS011;63360;50.104;8.074;2023-02-28T06:35:20;8.00;;;2.92;;
74707;SDS011;63360;50.104;8.074;2023-02-28T06:37:48;7.22;;;2.92;;
74707;SDS011;63360;50.104;8.074;2023-02-28T06:40:14;7.67;;;3.10;;
74707;SDS011;63360;50.104;8.074;2023-02-28T06:42:41;10.20;;;3.47;;
74707;SDS011;63360;50.104;8.074;2023-02-28T06:45:08;8.98;;;3.33;;
74707;SDS011;63360;50.104;8.074;2023-02-28T06:47:37;7.88;;;3.28;;
74707;SDS011;63360;50.104;8.074;2023-02-28T06:50:05;7.90;;;3.25;;
74707;SDS011;63360;50.104;8.074;2023-02-28T06:52:33;6.93;;;2.63;;
74707;SDS011;63360;50.104;8.074;2023-02-28T06:55:02;7.88;;;2.90;;
74707;SDS011;63360;50.104;8.074;2023-02-28T06:57:34;6.20;;;2.70;;
74707;SDS011;63360;50.104;8.074;2023-02-28T07:00:04;6.95;;;2.95;;
74707;SDS011;63360;50.104;8.074;2023-02-28T07:02:34;7.78;;;2.78;;
74707;SDS011;63360;50.104;8.074;2023-02-28T07:05:01;9.13;;;3.30;;
74707;SDS011;63360;50.104;8.074;2023-02-28T07:07:29;7.55;;;3.03;;
74707;SDS011;63360;50.104;8.074;2023-02-28T07:09:55;6.00;;;2.38;;
74707;SDS011;63360;50.104;8.074;2023-02-28T07:12:22;7.47;;;2.90;;
74707;SDS011;63360;50.104;8.074;2023-02-28T07:14:48;6.53;;;2.70;;
74707;SDS011;63360;50.104;8.074;2023-02-28T07:17:15;6.90;;;2.70;;
74707;SDS011;63360;50.104;8.074;2023-02-28T07:19:41;6.80;;;2.88;;
74707;SDS011;63360;50.104;8.074;2023-02-28T07:22:08;6.60;;;2.70;;
74707;SDS011;63360;50.104;8.074;2023-02-28T07:24:34;7.40;;;2.42;;
74707;SDS011;63360;50.104;8.074;2023-02-28T07:27:00;6.20;;;2.80;;
74707;SDS011;63360;50.104;8.074;2023-02-28T07:29:27;6.87;;;2.53;;
74707;SDS011;63360;50.104;8.074;2023-02-28T07:31:54;6.88;;;2.60;;
74707;SDS011;63360;50.104;8.074;2023-02-28T07:34:20;8.00;;;3.10;;
74707;SDS011;63360;50.104;8.074;2023-02-28T07:36:47;9.05;;;2.88;;
74707;SDS011;63360;50.104;8.074;2023-02-28T07:39:14;6.93;;;2.40;;
74707;SDS011;63360;50.104;8.074;2023-02-28T07:41:40;6.37;;;2.70;;
74707;SDS011;63360;50.104;8.074;2023-02-28T07:44:10;6.00;;;2.30;;
74707;SDS011;63360;50.104;8.074;2023-02-28T07:46:37;6.05;;;2.20;;
74707;SDS011;63360;50.104;8.074;2023-02-28T07:49:03;8.07;;;2.85;;
74707;SDS011;63360;50.104;8.074;2023-02-28T07:51:31;9.75;;;3.58;;
74707;SDS011;63360;50.104;8.074;2023-02-28T07:53:57;11.33;;;3.87;;
74707;SDS011;63360;50.104;8.074;2023-02-28T07:56:24;4.75;;;1.77;;
74707;SDS011;63360;50.104;8.074;2023-02-28T07:58:50;6.60;;;2.70;;
74707;SDS011;63360;50.104;8.074;2023-02-28T08:01:17;6.68;;;2.50;;
74707;SDS011;63360;50.104;8.074;2023-02-28T08:03:51;5.70;;;2.58;;
74707;SDS011;63360;50.104;8.074;2023-02-28T08:06:18;5.73;;;2.33;;
74707;SDS011;63360;50.104;8.074;2023-02-28T08:08:47;5.65;;;2.17;;
74707;SDS011;63360;50.104;8.074;2023-02-28T08:11:15;6.65;;;2.40;;
74707;SDS011;63360;50.104;8.074;2023-02-28T08:13:42;5.60;;;2.20;;
74707;SDS011;63360;50.104;8.074;2023-02-28T08:16:10;5.18;;;2.10;;
74707;SDS011;63360;50.104;8.074;2023-02-28T08:18:38;6.57;;;2.53;;
74707;SDS011;63360;50.104;8.074;2023-02-28T08:21:07;4.93;;;2.10;;
74707;SDS011;63360;50.104;8.074;2023-02-28T08:23:35;4.85;;;2.03;;
74707;SDS011;63360;50.104;8.074;2023-02-28T08:26:02;6.90;;;2.05;;
74707;SDS011;63360;50.104;8.074;2023-02-28T08:28:29;6.13;;;2.33;;
74707;SDS011;63360;50.104;8.074;2023-02-28T08:30:55;6.07;;;2.40;;
74707;SDS011;63360;50.104;8.074;2023-02-28T08:33:22;6.57;;;2.30;;
74707;SDS011;63360;50.104;8.074;2023-02-28T08:35:51;7.32;;;2.70;;
74707;SDS011;63360;50.104;8.074;2023-02-28T08:38:20;5.85;;;2.72;;
74707;SDS011;63360;50.104;8.074;2023-02-28T08:40:47;5.53;;;2.65;;
74707;SDS011;63360;50.104;8.074;2023-02-28T08:43:13;5.20;;;2.50;;
74707;SDS011;63360;50.104;8.074;2023-02-28T08:45:39;6.07;;;2.03;;
74707;SDS011;63360;50.104;8.074;2023-02-28T08:48:06;4.97;;;1.95;;
74707;SDS011;63360;50.104;8.074;2023-02-28T08:50:32;4.18;;;1.65;;
74707;SDS011;63360;50.104;8.074;2023-02-28T08:52:59;3.67;;;1.30;;
74707;SDS011;63360;50.104;8.074;2023-02-28T08:55:26;3.60;;;1.30;;
74707;SDS011;63360;50.104;8.074;2023-02-28T08:57:52;3.00;;;1.20;;
74707;SDS011;63360;50.104;8.074;2023-02-28T09:00:18;4.22;;;1.60;;
74707;SDS011;63360;50.104;8.074;2023-02-28T09:02:45;2.83;;;1.08;;
74707;SDS011;63360;50.104;8.074;2023-02-28T09:05:12;4.10;;;1.35;;
74707;SDS011;63360;50.104;8.074;2023-02-28T09:07:38;2.90;;;1.00;;
74707;SDS011;63360;50.104;8.074;2023-02-28T09:10:04;4.85;;;1.48;;
74707;SDS011;63360;50.104;8.074;2023-02-28T09:12:32;4.47;;;1.70;;
74707;SDS011;63360;50.104;8.074;2023-02-28T09:15:00;3.55;;;1.30;;
74707;SDS011;63360;50.104;8.074;2023-02-28T09:17:27;3.42;;;1.27;;
74707;SDS011;63360;50.104;8.074;2023-02-28T09:19:56;6.87;;;1.67;;
74707;SDS011;63360;50.104;8.074;2023-02-28T09:22:23;5.50;;;2.03;;
74707;SDS011;63360;50.104;8.074;2023-02-28T09:24:49;4.50;;;1.67;;
74707;SDS011;63360;50.104;8.074;2023-02-28T09:27:16;5.55;;;2.25;;
74707;SDS011;63360;50.104;8.074;2023-02-28T09:29:42;5.95;;;1.80;;
74707;SDS011;63360;50.104;8.074;2023-02-28T09:32:08;4.30;;;1.33;;
74707;SDS011;63360;50.104;8.074;2023-02-28T09:34:35;4.57;;;1.85;;
74707;SDS011;63360;50.104;8.074;2023-02-28T09:37:03;3.75;;;1.77;;
74707;SDS011;63360;50.104;8.074;2023-02-28T09:39:29;2.80;;;1.05;;
74707;SDS011;63360;50.104;8.074;2023-02-28T09:41:56;4.72;;;1.92;;
74707;SDS011;63360;50.104;8.074;2023-02-28T09:44:28;4.13;;;1.53;;
74707;SDS011;63360;50.104;8.074;2023-02-28T09:47:04;5.80;;;2.03;;
74707;SDS011;63360;50.104;8.074;2023-02-28T09:49:37;6.43;;;2.40;;
74707;SDS011;63360;50.104;8.074;2023-02-28T09:52:42;7.28;;;2.33;;
74707;SDS011;63360;50.104;8.074;2023-02-28T09:55:16;5.50;;;2.40;;
74707;SDS011;63360;50.104;8.074;2023-02-28T09:58:00;12.47;;;2.53;;
74707;SDS011;63360;50.104;8.074;2023-02-28T10:00:32;5.68;;;2.42;;
74707;SDS011;63360;50.104;8.074;2023-02-28T10:05:34;5.10;;;1.67;;
74707;SDS011;63360;50.104;8.074;2023-02-28T10:08:16;5.80;;;2.05;;
74707;SDS011;63360;50.104;8.074;2023-02-28T10:10:57;4.50;;;1.80;;
74707;SDS011;63360;50.104;8.074;2023-02-28T10:16:29;5.53;;;2.15;;
74707;SDS011;63360;50.104;8.074;2023-02-28T10:21:37;6.45;;;2.10;;
74707;SDS011;63360;50.104;8.074;2023-02-28T10:24:25;7.23;;;2.57;;
74707;SDS011;63360;50.104;8.074;2023-02-28T10:26:59;8.05;;;2.15;;
74707;SDS011;63360;50.104;8.074;2023-02-28T10:29:28;6.50;;;2.50;;
74707;SDS011;63360;50.104;8.074;2023-02-28T10:31:58;5.07;;;1.60;;
74707;SDS011;63360;50.104;8.074;2023-02-28T10:34:28;4.28;;;1.85;;
74707;SDS011;63360;50.104;8.074;2023-02-28T10:36:54;5.83;;;2.30;;
74707;SDS011;63360;50.104;8.074;2023-02-28T10:42:27;7.22;;;2.30;;
74707;SDS011;63360;50.104;8.074;2023-02-28T10:45:38;7.97;;;2.88;;
74707;SDS011;63360;50.104;8.074;2023-02-28T10:47:54;6.30;;;2.05;;
74707;SDS011;63360;50.104;8.074;2023-02-28T10:53:15;5.43;;;2.47;;
74707;SDS011;63360;50.104;8.074;2023-02-28T10:55:42;5.07;;;2.20;;
74707;SDS011;63360;50.104;8.074;2023-02-28T10:58:22;6.50;;;2.55;;
74707;SDS011;63360;50.104;8.074;2023-02-28T11:00:50;5.97;;;2.42;;
74707;SDS011;63360;50.104;8.074;2023-02-28T11:03:32;8.83;;;2.70;;
74707;SDS011;63360;50.104;8.074;2023-02-28T11:06:34;5.72;;;2.42;;
74707;SDS011;63360;50.104;8.074;2023-02-28T11:09:02;7.43;;;2.78;;
74707;SDS011;63360;50.104;8.074;2023-02-28T11:11:31;7.38;;;2.58;;
74707;SDS011;63360;50.104;8.074;2023-02-28T11:14:17;5.82;;;2.30;;
74707;SDS011;63360;50.104;8.074;2023-02-28T11:16:47;5.63;;;2.13;;
74707;SDS011;63360;50.104;8.074;2023-02-28T11:19:35;6.10;;;2.63;;
74707;SDS011;63360;50.104;8.074;2023-02-28T11:22:06;5.85;;;2.20;;
74707;SDS011;63360;50.104;8.074;2023-02-28T11:24:43;8.63;;;2.60;;
74707;SDS011;63360;50.104;8.074;2023-02-28T11:27:59;7.20;;;2.90;;
74707;SDS011;63360;50.104;8.074;2023-02-28T11:30:02;6.13;;;2.57;;
74707;SDS011;63360;50.104;8.074;2023-02-28T11:32:30;5.75;;;2.55;;
74707;SDS011;63360;50.104;8.074;2023-02-28T11:35:02;7.85;;;2.42;;
74707;SDS011;63360;50.104;8.074;2023-02-28T11:37:35;6.97;;;2.60;;
74707;SDS011;63360;50.104;8.074;2023-02-28T11:40:02;7.65;;;2.30;;
74707;SDS011;63360;50.104;8.074;2023-02-28T11:42:39;7.37;;;2.90;;
74707;SDS011;63360;50.104;8.074;2023-02-28T11:48:14;7.35;;;3.10;;
74707;SDS011;63360;50.104;8.074;2023-02-28T11:53:35;9.43;;;2.70;;
74707;SDS011;63360;50.104;8.074;2023-02-28T11:56:32;6.13;;;2.50;;
74707;SDS011;63360;50.104;8.074;2023-02-28T12:07:39;5.40;;;2.72;;
74707;SDS011;63360;50.104;8.074;2023-02-28T12:10:28;9.33;;;3.00;;
74707;SDS011;63360;50.104;8.074;2023-02-28T12:18:29;5.90;;;2.50;;
74707;SDS011;63360;50.104;8.074;2023-02-28T12:21:18;5.90;;;2.72;;
74707;SDS011;63360;50.104;8.074;2023-02-28T12:26:40;6.55;;;2.60;;
74707;SDS011;63360;50.104;8.074;2023-02-28T12:31:41;7.55;;;2.70;;
74707;SDS011;63360;50.104;8.074;2023-02-28T12:34:16;6.53;;;2.35;;
74707;SDS011;63360;50.104;8.074;2023-02-28T12:36:51;7.40;;;3.00;;
74707;SDS011;63360;50.104;8.074;2023-02-28T12:39:33;6.63;;;2.97;;
74707;SDS011;63360;50.104;8.074;2023-02-28T12:42:38;6.18;;;2.60;;
74707;SDS011;63360;50.104;8.074;2023-02-28T12:47:37;7.82;;;3.53;;
74707;SDS011;63360;50.104;8.074;2023-02-28T12:50:07;7.60;;;2.90;;
74707;SDS011;63360;50.104;8.074;2023-02-28T12:58:01;8.23;;;3.33;;
74707;SDS011;63360;50.104;8.074;2023-02-28T13:01:13;6.43;;;2.80;;
74707;SDS011;63360;50.104;8.074;2023-02-28T13:06:43;6.75;;;2.45;;
74707;SDS011;63360;50.104;8.074;2023-02-28T13:09:12;8.30;;;3.45;;
74707;SDS011;63360;50.104;8.074;2023-02-28T13:11:51;6.93;;;2.83;;
74707;SDS011;63360;50.104;8.074;2023-02-28T13:19:39;7.72;;;2.65;;
74707;SDS011;63360;50.104;8.074;2023-02-28T13:22:20;7.57;;;2.90;;
74707;SDS011;63360;50.104;8.074;2023-02-28T13:27:48;7.53;;;3.03;;
74707;SDS011;63360;50.104;8.074;2023-02-28T13:38:45;7.07;;;2.60;;
74707;SDS011;63360;50.104;8.074;2023-02-28T13:46:35;7.65;;;3.15;;
74707;SDS011;63360;50.104;8.074;2023-02-28T13:51:55;8.95;;;3.00;;
74707;SDS011;63360;50.104;8.074;2023-02-28T14:03:06;7.82;;;3.75;;
74707;SDS011;63360;50.104;8.074;2023-02-28T14:05:45;7.53;;;3.50;;
74707;SDS011;63360;50.104;8.074;2023-02-28T14:10:46;7.73;;;3.27;;
74707;SDS011;63360;50.104;8.074;2023-02-28T14:15:57;9.02;;;3.42;;
74707;SDS011;63360;50.104;8.074;2023-02-28T14:18:33;8.15;;;3.22;;
74707;SDS011;63360;50.104;8.074;2023-02-28T14:21:09;8.60;;;3.55;;
74707;SDS011;63360;50.104;8.074;2023-02-28T14:26:28;8.00;;;3.17;;
74707;SDS011;63360;50.104;8.074;2023-02-28T14:32:11;8.55;;;3.80;;
74707;SDS011;63360;50.104;8.074;2023-02-28T14:37:30;7.80;;;3.33;;
74707;SDS011;63360;50.104;8.074;2023-02-28T14:39:59;8.35;;;3.80;;
74707;SDS011;63360;50.104;8.074;2023-02-28T14:44:58;8.43;;;3.38;;
74707;SDS011;63360;50.104;8.074;2023-02-28T14:47:27;7.95;;;3.60;;
74707;SDS011;63360;50.104;8.074;2023-02-28T14:49:57;9.53;;;3.30;;
74707;SDS011;63360;50.104;8.074;2023-02-28T14:52:27;8.10;;;3.63;;
74707;SDS011;63360;50.104;8.074;2023-02-28T14:54:57;8.95;;;3.45;;
74707;SDS011;63360;50.104;8.074;2023-02-28T14:57:31;9.10;;;3.65;;
74707;SDS011;63360;50.104;8.074;2023-02-28T15:00:04;8.45;;;3.33;;
74707;SDS011;63360;50.104;8.074;2023-02-28T15:02:39;8.50;;;3.60;;
74707;SDS011;63360;50.104;8.074;2023-02-28T15:07:36;10.10;;;3.90;;
74707;SDS011;63360;50.104;8.074;2023-02-28T15:12:57;8.57;;;3.38;;
74707;SDS011;63360;50.104;8.074;2023-02-28T15:21:13;8.05;;;3.30;;
74707;SDS011;63360;50.104;8.074;2023-02-28T15:24:07;7.75;;;3.25;;
74707;SDS011;63360;50.104;8.074;2023-02-28T15:26:39;7.45;;;3.20;;
74707;SDS011;63360;50.104;8.074;2023-02-28T15:29:10;7.87;;;3.30;;
74707;SDS011;63360;50.104;8.074;2023-02-28T15:31:43;8.52;;;3.10;;
74707;SDS011;63360;50.104;8.074;2023-02-28T15:40:14;8.23;;;3.65;;
74707;SDS011;63360;50.104;8.074;2023-02-28T15:42:40;8.63;;;3.70;;
74707;SDS011;63360;50.104;8.074;2023-02-28T15:47:58;7.72;;;3.50;;
74707;SDS011;63360;50.104;8.074;2023-02-28T15:50:33;7.75;;;3.30;;
74707;SDS011;63360;50.104;8.074;2023-02-28T15:53:00;8.48;;;3.33;;
74707;SDS011;63360;50.104;8.074;2023-02-28T15:55:29;7.17;;;2.93;;
74707;SDS011;63360;50.104;8.074;2023-02-28T15:57:57;8.43;;;3.00;;
74707;SDS011;63360;50.104;8.074;2023-02-28T16:00:28;6.25;;;3.10;;
74707;SDS011;63360;50.104;8.074;2023-02-28T16:02:55;7.38;;;3.35;;
74707;SDS011;63360;50.104;8.074;2023-02-28T16:05:23;7.93;;;3.20;;
74707;SDS011;63360;50.104;8.074;2023-02-28T16:07:57;6.70;;;2.83;;
74707;SDS011;63360;50.104;8.074;2023-02-28T16:10:26;7.28;;;3.47;;
74707;SDS011;63360;50.104;8.074;2023-02-28T16:12:54;9.38;;;3.85;;
74707;SDS011;63360;50.104;8.074;2023-02-28T16:15:29;7.95;;;3.75;;
74707;SDS011;63360;50.104;8.074;2023-02-28T16:18:01;10.13;;;3.40;;
74707;SDS011;63360;50.104;8.074;2023-02-28T16:20:28;7.53;;;3.20;;
74707;SDS011;63360;50.104;8.074;2023-02-28T16:22:56;8.73;;;3.47;;
74707;SDS011;63360;50.104;8.074;2023-02-28T16:25:29;7.50;;;3.28;;
74707;SDS011;63360;50.104;8.074;2023-02-28T16:28:01;9.05;;;3.10;;
74707;SDS011;63360;50.104;8.074;2023-02-28T16:30:28;8.23;;;3.47;;
74707;SDS011;63360;50.104;8.074;2023-02-28T16:32:57;10.13;;;3.77;;
74707;SDS011;63360;50.104;8.074;2023-02-28T16:35:24;9.32;;;3.50;;
74707;SDS011;63360;50.104;8.074;2023-02-28T16:37:51;9.27;;;3.75;;
74707;SDS011;63360;50.104;8.074;2023-02-28T16:40:18;8.13;;;3.80;;
74707;SDS011;63360;50.104;8.074;2023-02-28T16:42:48;10.05;;;3.92;;
74707;SDS011;63360;50.104;8.074;2023-02-28T16:45:17;8.33;;;3.90;;
74707;SDS011;63360;50.104;8.074;2023-02-28T16:47:46;9.32;;;3.45;;
74707;SDS011;63360;50.104;8.074;2023-02-28T16:50:34;9.07;;;3.85;;
74707;SDS011;63360;50.104;8.074;2023-02-28T16:52:59;8.45;;;3.67;;
74707;SDS011;63360;50.104;8.074;2023-02-28T16:55:26;8.23;;;3.72;;
74707;SDS011;63360;50.104;8.074;2023-02-28T16:57:54;8.03;;;3.60;;
74707;SDS011;63360;50.104;8.074;2023-02-28T17:00:22;10.20;;;3.35;;
74707;SDS011;63360;50.104;8.074;2023-02-28T17:02:49;7.40;;;3.13;;
74707;SDS011;63360;50.104;8.074;2023-02-28T17:05:17;8.90;;;3.38;;
74707;SDS011;63360;50.104;8.074;2023-02-28T17:07:45;9.32;;;3.40;;
74707;SDS011;63360;50.104;8.074;2023-02-28T17:12:43;6.57;;;3.22;;
74707;SDS011;63360;50.104;8.074;2023-02-28T17:15:11;8.25;;;3.58;;
74707;SDS011;63360;50.104;8.074;2023-02-28T17:17:39;9.38;;;3.75;;
74707;SDS011;63360;50.104;8.074;2023-02-28T17:20:07;7.78;;;3.38;;
74707;SDS011;63360;50.104;8.074;2023-02-28T17:22:38;11.50;;;4.07;;
74707;SDS011;63360;50.104;8.074;2023-02-28T17:25:05;10.10;;;4.25;;
74707;SDS011;63360;50.104;8.074;2023-02-28T17:27:31;10.90;;;4.30;;
74707;SDS011;63360;50.104;8.074;2023-02-28T17:29:58;10.77;;;4.05;;
74707;SDS011;63360;50.104;8.074;2023-02-28T17:32:24;9.40;;;4.05;;
74707;SDS011;63360;50.104;8.074;2023-02-28T17:34:51;9.43;;;3.50;;
74707;SDS011;63360;50.104;8.074;2023-02-28T17:37:18;11.55;;;4.60;;
74707;SDS011;63360;50.104;8.074;2023-02-28T17:39:44;14.23;;;5.70;;
74707;SDS011;63360;50.104;8.074;2023-02-28T17:42:11;13.52;;;5.30;;